Vyacheslav Tikhonov — UBSH6 — position and weather

sailwx.info

Track history (hours):
 
Tides and Currents Weather Stations Pressure Air Temp Water Temp Dewpoint Dewpoint Depression Visibility Wind Speed Wind Dir Waves Ship Positions

Vyacheslav Tikhonov

Last reported at 2017-Apr-08 10:52 UTC. Time now 2017-Apr-28 00:47 UTC.
Position N 54°42' E 020°27'.
Warning: this ship's position is 19 days out of date.

Length 84 m; draft 6.6 m.

Type: Other ship. MMSI: 273350140.

Date/timePositionNaut miles runAvg speedWind from/ knotsBaromVisibWave heightAir tempDewpointWater temp
2017-Apr-08 10:52N 54°42' E 020°27'  
2017-Apr-02 03:22N 54°42' E 020°27'0 0.0
2017-Apr-02 02:55N 54°42' E 020°27'  
2017-Mar-30 14:33N 54°39' E 020°03'8 7.6
2017-Mar-30 13:27N 54°40' E 019°49'3 3.3
2017-Mar-30 12:33N 54°41' E 019°44'5 5.3
2017-Mar-30 11:33N 54°44' E 019°36'4 3.8
2017-Mar-30 10:32N 54°46' E 019°30'7 6.8
2017-Mar-30 09:33N 54°49' E 019°20'7 6.8
2017-Mar-30 08:29N 54°55' E 019°14'  
Track history (hours):
 
Tides and Currents Weather Stations Pressure Air Temp Water Temp Dewpoint Dewpoint Depression Visibility Wind Speed Wind Dir Waves Ship Positions

Vyacheslav Tikhonov

Last reported at 2017-Apr-08 10:52 UTC. Time now 2017-Apr-28 00:47 UTC.
Position N 54°42' E 020°27'.
Warning: this ship's position is 19 days out of date.

Length 84 m; draft 6.6 m.

Type: Other ship. MMSI: 273350140.

Date/timePositionNaut miles runAvg speedWind from/ knotsBaromVisibWave heightAir tempDewpointWater temp
2017-Apr-08 10:52N 54°42' E 020°27'  
2017-Apr-02 03:22N 54°42' E 020°27'0 0.0
2017-Apr-02 02:55N 54°42' E 020°27'  
2017-Mar-30 14:33N 54°39' E 020°03'8 7.6
2017-Mar-30 13:27N 54°40' E 019°49'3 3.3
2017-Mar-30 12:33N 54°41' E 019°44'5 5.3
2017-Mar-30 11:33N 54°44' E 019°36'4 3.8
2017-Mar-30 10:32N 54°46' E 019°30'7 6.8
2017-Mar-30 09:33N 54°49' E 019°20'7 6.8
2017-Mar-30 08:29N 54°55' E 019°14'  

Dump ship's entire track history